createdAt,value
2019-03-23T00:00:11.350Z,15.93
2019-03-23T00:02:41.254Z,15.38
2019-03-23T00:05:11.821Z,14.40
2019-03-23T00:07:41.762Z,15.10
2019-03-23T00:10:12.119Z,15.50
2019-03-23T00:12:42.277Z,15.77
2019-03-23T00:15:12.334Z,12.93
2019-03-23T00:17:42.078Z,14.27
2019-03-23T00:20:12.376Z,19.43
2019-03-23T00:22:43.773Z,16.13
2019-03-23T00:25:13.781Z,15.90
2019-03-23T00:27:45.464Z,17.57
2019-03-23T00:30:15.643Z,14.20
2019-03-23T00:32:46.803Z,15.13
2019-03-23T00:35:19.936Z,13.13
2019-03-23T00:37:51.543Z,16.80
2019-03-23T00:40:24.355Z,15.10
2019-03-23T00:42:57.319Z,15.73
2019-03-23T00:45:29.723Z,13.47
2019-03-23T00:48:01.117Z,13.03
2019-03-23T00:50:31.157Z,16.37
2019-03-23T00:53:01.779Z,14.33
2019-03-23T00:55:31.540Z,16.50
2019-03-23T00:58:01.976Z,16.13
2019-03-23T01:00:32.135Z,17.87
2019-03-23T01:03:03.214Z,16.37
2019-03-23T01:05:33.253Z,11.63
2019-03-23T01:08:06.219Z,16.80
2019-03-23T01:10:37.032Z,14.67
2019-03-23T01:13:07.511Z,16.03
2019-03-23T01:15:37.293Z,16.63
2019-03-23T01:18:07.632Z,15.97
2019-03-23T01:20:38.185Z,13.13
2019-03-23T01:23:08.439Z,14.47
2019-03-23T01:25:39.539Z,13.13
2019-03-23T01:28:12.832Z,13.80
2019-03-23T01:30:44.883Z,14.33
2019-03-23T01:33:17.757Z,14.13
2019-03-23T01:35:47.676Z,12.33
2019-03-23T01:38:20.563Z,11.70
2019-03-23T01:40:54.305Z,12.83
2019-03-23T01:43:28.182Z,12.93
2019-03-23T01:46:01.444Z,12.23
2019-03-23T01:48:33.397Z,13.13
2019-03-23T01:51:03.119Z,11.93
2019-03-23T01:53:33.225Z,15.87
2019-03-23T01:56:03.437Z,12.43
2019-03-23T01:58:33.800Z,13.07
2019-03-23T02:01:04.563Z,13.17
2019-03-23T02:03:34.550Z,11.23
2019-03-23T02:06:04.490Z,11.90
2019-03-23T02:08:35.529Z,12.93
2019-03-23T02:11:05.955Z,11.43
2019-03-23T02:13:36.967Z,13.63
2019-03-23T02:16:07.052Z,14.27
2019-03-23T02:18:36.687Z,12.80
2019-03-23T02:21:07.297Z,12.23
2019-03-23T02:23:37.782Z,11.13
2019-03-23T02:26:07.896Z,13.97
2019-03-23T02:28:38.224Z,15.00
2019-03-23T02:31:08.059Z,11.67
2019-03-23T02:33:38.926Z,13.23
2019-03-23T02:36:08.894Z,15.33
2019-03-23T02:38:42.521Z,14.10
2019-03-23T02:41:12.779Z,12.57
2019-03-23T02:43:45.161Z,14.37
2019-03-23T02:46:15.880Z,9.87
2019-03-23T02:48:45.418Z,12.27
2019-03-23T02:51:18.457Z,16.97
2019-03-23T02:53:48.726Z,11.37
2019-03-23T02:56:18.357Z,13.37
2019-03-23T02:58:48.714Z,14.57
2019-03-23T03:01:20.465Z,12.23
2019-03-23T03:03:50.021Z,12.30
2019-03-23T03:06:20.354Z,14.07
2019-03-23T03:08:50.935Z,13.80
2019-03-23T03:11:21.936Z,14.17
2019-03-23T03:13:51.926Z,11.03
2019-03-23T03:16:21.606Z,12.43
2019-03-23T03:18:51.906Z,13.50
2019-03-23T03:21:22.761Z,13.73
2019-03-23T03:23:53.385Z,12.57
2019-03-23T03:26:23.883Z,14.30
2019-03-23T03:28:54.726Z,12.00
2019-03-23T03:31:25.994Z,14.10
2019-03-23T03:33:57.504Z,11.47
2019-03-23T03:36:30.057Z,14.53
2019-03-23T03:53:57.873Z,12.00
2019-03-23T03:56:30.249Z,12.20
2019-03-23T03:59:01.280Z,13.60
2019-03-23T04:01:31.764Z,10.97
2019-03-23T04:04:02.847Z,10.70
2019-03-23T04:06:35.054Z,14.33
2019-03-23T04:09:05.988Z,14.10
2019-03-23T04:11:36.335Z,12.60
2019-03-23T04:19:06.188Z,9.90
2019-03-23T04:21:39.219Z,13.20
2019-03-23T04:24:12.680Z,13.77
2019-03-23T04:26:42.615Z,10.23
2019-03-23T04:29:12.570Z,12.10
2019-03-23T04:31:43.918Z,11.90
2019-03-23T04:34:13.914Z,11.12
2019-03-23T04:36:45.509Z,12.63
2019-03-23T04:39:16.739Z,11.88
2019-03-23T04:41:47.070Z,10.53
2019-03-23T04:44:19.726Z,11.68
2019-03-23T04:46:49.738Z,11.43
2019-03-23T04:49:20.877Z,10.93
2019-03-23T04:51:51.032Z,12.25
2019-03-23T04:54:21.367Z,11.40
2019-03-23T04:56:52.160Z,12.35
2019-03-23T04:59:23.828Z,11.17
2019-03-23T05:01:53.823Z,10.93
2019-03-23T05:04:23.360Z,11.23
2019-03-23T05:06:53.205Z,11.20
2019-03-23T05:09:23.855Z,11.03
2019-03-23T05:11:53.424Z,12.27
2019-03-23T05:14:23.501Z,10.00
2019-03-23T05:16:53.973Z,11.53
2019-03-23T05:19:24.388Z,8.73
2019-03-23T05:21:54.078Z,10.53
2019-03-23T05:24:24.133Z,11.10
2019-03-23T05:26:53.821Z,11.20
2019-03-23T05:29:23.851Z,11.97
2019-03-23T05:31:54.006Z,9.57
2019-03-23T05:34:23.907Z,11.43
2019-03-23T05:36:53.697Z,9.93
2019-03-23T05:39:43.228Z,12.17
2019-03-23T05:42:13.746Z,12.67
2019-03-23T05:44:44.526Z,9.87
2019-03-23T05:47:18.209Z,9.73
2019-03-23T05:50:19.246Z,10.53
2019-03-23T05:53:07.955Z,12.00
2019-03-23T05:55:32.644Z,10.80
2019-03-23T05:58:34.632Z,11.27
2019-03-23T06:01:04.884Z,11.07
2019-03-23T06:03:34.902Z,13.00
2019-03-23T06:06:27.122Z,11.63
2019-03-23T06:08:57.042Z,16.23
2019-03-23T06:11:28.214Z,10.03
2019-03-23T06:14:40.080Z,12.03
2019-03-23T06:17:51.354Z,12.57
2019-03-23T06:20:23.497Z,12.13
2019-03-23T06:22:55.785Z,9.80
2019-03-23T06:25:25.102Z,11.10
2019-03-23T06:27:56.283Z,13.07
2019-03-23T06:30:26.051Z,10.03
2019-03-23T06:33:00.259Z,12.07
2019-03-23T06:35:30.671Z,11.40
2019-03-23T06:38:01.285Z,12.13
2019-03-23T06:40:31.402Z,12.47
2019-03-23T06:43:03.829Z,11.90
2019-03-23T06:45:36.730Z,12.10
2019-03-23T06:48:06.770Z,13.33
2019-03-23T06:50:38.637Z,12.77
2019-03-23T06:53:11.709Z,12.47
2019-03-23T06:55:41.757Z,11.33
2019-03-23T06:58:12.933Z,12.23
2019-03-23T07:00:43.453Z,12.97
2019-03-23T07:03:13.513Z,12.00
2019-03-23T07:05:43.708Z,12.50
2019-03-23T07:08:13.974Z,13.43
2019-03-23T07:10:44.406Z,12.67
2019-03-23T07:13:15.441Z,10.23
2019-03-23T07:15:45.810Z,10.73
2019-03-23T07:18:15.678Z,10.93
2019-03-23T07:20:47.503Z,12.00
2019-03-23T07:23:17.718Z,13.10
2019-03-23T07:25:47.622Z,12.00
2019-03-23T07:28:17.228Z,10.90
2019-03-23T07:30:49.555Z,10.23
2019-03-23T07:33:21.501Z,10.87
2019-03-23T07:35:52.210Z,10.43
2019-03-23T07:38:23.975Z,11.40
2019-03-23T07:45:53.225Z,11.55
2019-03-23T07:48:28.417Z,12.25
2019-03-23T07:50:56.847Z,15.20
2019-03-23T07:53:26.860Z,11.97
2019-03-23T07:55:59.147Z,10.53
2019-03-23T07:58:30.369Z,11.68
2019-03-23T08:01:02.310Z,12.60
2019-03-23T08:03:32.425Z,12.25
2019-03-23T08:06:03.200Z,11.93
2019-03-23T08:08:37.270Z,12.05
2019-03-23T08:11:06.889Z,11.40
2019-03-23T08:13:36.963Z,12.90
2019-03-23T08:16:29.875Z,16.87
2019-03-23T08:19:06.174Z,14.07
2019-03-23T08:22:26.008Z,17.07
2019-03-23T08:24:45.754Z,16.02
2019-03-23T08:27:41.672Z,17.87
2019-03-23T08:30:48.758Z,17.27
2019-03-23T08:33:48.308Z,15.90
2019-03-23T08:39:49.336Z,18.42
2019-03-23T08:42:39.238Z,19.95
2019-03-23T08:45:19.875Z,21.40
2019-03-23T08:47:50.356Z,22.05
2019-03-23T08:50:40.491Z,21.10
2019-03-23T08:57:21.419Z,21.27
2019-03-23T08:59:57.718Z,21.60
2019-03-23T09:02:31.553Z,21.97
2019-03-23T09:05:03.645Z,19.97
2019-03-23T09:07:33.886Z,21.23
2019-03-23T09:10:10.413Z,25.32
2019-03-23T09:13:25.179Z,22.93
2019-03-23T09:16:04.040Z,26.17
2019-03-23T09:18:36.023Z,24.25
2019-03-23T09:21:06.244Z,23.55
2019-03-23T09:23:36.191Z,27.62
2019-03-23T09:26:07.214Z,25.85
2019-03-23T09:28:40.402Z,25.65
2019-03-23T09:31:13.628Z,26.02
2019-03-23T09:33:44.796Z,27.25
2019-03-23T09:36:22.966Z,27.45
2019-03-23T09:38:55.475Z,26.80
2019-03-23T09:41:25.762Z,25.68
2019-03-23T09:43:56.718Z,24.23
2019-03-23T09:46:30.618Z,26.27
2019-03-23T09:49:05.449Z,25.32
2019-03-23T09:51:35.202Z,27.02
2019-03-23T09:54:05.027Z,26.80
2019-03-23T09:56:35.403Z,26.62
2019-03-23T09:59:05.606Z,24.35
2019-03-23T10:01:42.264Z,23.77
2019-03-23T10:04:10.105Z,26.85
2019-03-23T10:06:40.015Z,26.45
2019-03-23T10:09:10.296Z,25.82
2019-03-23T10:11:45.351Z,28.87
2019-03-23T10:14:20.694Z,26.42
2019-03-23T10:16:59.795Z,26.55
2019-03-23T10:19:39.364Z,25.43
2019-03-23T10:22:09.506Z,27.90
2019-03-23T10:24:57.317Z,24.80
2019-03-23T10:27:28.852Z,26.30
2019-03-23T10:29:59.508Z,28.27
2019-03-23T10:32:29.670Z,27.30
2019-03-23T10:34:59.743Z,28.30
2019-03-23T10:37:43.717Z,30.48
2019-03-23T10:40:11.464Z,29.47
2019-03-23T10:42:43.373Z,29.52
2019-03-23T10:45:14.777Z,29.80
2019-03-23T10:47:46.513Z,31.50
2019-03-23T10:50:16.630Z,31.80
2019-03-23T10:52:47.082Z,32.00
2019-03-23T10:55:16.995Z,32.28
2019-03-23T10:57:47.417Z,28.53
2019-03-23T11:00:25.487Z,30.60
2019-03-23T11:02:59.994Z,28.00
2019-03-23T11:05:37.187Z,30.90
2019-03-23T11:08:15.075Z,29.10
2019-03-23T11:10:51.615Z,29.60
2019-03-23T11:13:36.510Z,31.95
2019-03-23T11:16:23.811Z,33.73
2019-03-23T11:18:59.772Z,32.17
2019-03-23T11:21:35.312Z,33.60
2019-03-23T11:24:07.048Z,32.45
2019-03-23T11:26:47.974Z,32.78
2019-03-23T11:29:29.583Z,32.93
2019-03-23T11:32:06.707Z,32.78
2019-03-23T11:34:47.331Z,31.95
2019-03-23T11:37:20.020Z,33.98
2019-03-23T11:39:52.548Z,33.42
2019-03-23T11:42:28.980Z,34.05
2019-03-23T11:45:00.454Z,37.25
2019-03-23T11:47:32.062Z,31.57
2019-03-23T11:50:03.549Z,34.27
2019-03-23T11:52:42.281Z,34.92
2019-03-23T11:55:16.622Z,33.03
2019-03-23T11:57:49.741Z,32.98
2019-03-23T12:00:20.224Z,30.50
2019-03-23T12:03:01.004Z,33.10
2019-03-23T12:05:35.692Z,33.35
2019-03-23T12:08:07.630Z,32.67
2019-03-23T12:10:43.661Z,34.78
2019-03-23T12:13:16.784Z,32.10
2019-03-23T12:15:52.640Z,31.00
2019-03-23T12:19:00.299Z,32.63
2019-03-23T12:21:31.295Z,27.67
2019-03-23T12:24:22.045Z,29.07
2019-03-23T12:26:55.360Z,28.30
2019-03-23T12:29:37.375Z,28.35
2019-03-23T12:32:17.455Z,26.52
2019-03-23T12:34:52.490Z,25.70
2019-03-23T12:37:24.727Z,29.40
2019-03-23T12:39:58.167Z,32.38
2019-03-23T12:42:33.678Z,30.35
2019-03-23T12:45:08.515Z,31.93
2019-03-23T12:47:38.623Z,33.00
2019-03-23T12:50:12.348Z,32.40
2019-03-23T12:52:53.462Z,37.50
2019-03-23T12:55:24.012Z,33.53
2019-03-23T12:57:54.357Z,35.70
2019-03-23T13:00:36.022Z,34.95
2019-03-23T13:03:10.921Z,35.78
2019-03-23T13:05:44.433Z,34.67
2019-03-23T13:08:19.074Z,32.63
2019-03-23T13:10:59.382Z,37.53
2019-03-23T13:13:32.761Z,35.37
2019-03-23T13:16:08.623Z,35.60
2019-03-23T13:18:44.367Z,34.48
2019-03-23T13:21:24.088Z,31.50
2019-03-23T13:24:03.624Z,36.00
2019-03-23T13:26:46.513Z,36.60
2019-03-23T13:29:25.849Z,34.43
2019-03-23T13:31:57.737Z,34.55
2019-03-23T13:34:29.994Z,34.80
2019-03-23T13:37:06.068Z,33.78
2019-03-23T13:39:40.487Z,33.02
2019-03-23T13:42:14.823Z,31.42
2019-03-23T13:45:28.183Z,36.00
2019-03-23T13:48:00.135Z,32.10
2019-03-23T13:50:32.355Z,37.63
2019-03-23T13:53:11.743Z,33.73
2019-03-23T13:55:45.923Z,33.28
2019-03-23T13:58:19.770Z,33.05
2019-03-23T14:00:54.135Z,31.02
2019-03-23T14:03:31.383Z,33.57
2019-03-23T14:06:06.101Z,31.80
2019-03-23T14:08:39.852Z,27.98
2019-03-23T14:11:10.693Z,30.75
2019-03-23T14:13:44.434Z,30.52
2019-03-23T14:16:15.074Z,33.20
2019-03-23T14:18:48.286Z,31.25
2019-03-23T14:21:23.459Z,30.70
2019-03-23T14:23:58.662Z,30.97
2019-03-23T14:26:31.896Z,32.83
2019-03-23T14:29:05.647Z,29.37
2019-03-23T14:31:36.630Z,29.00
2019-03-23T14:34:13.024Z,27.87
2019-03-23T14:41:28.453Z,30.85
2019-03-23T14:44:00.397Z,28.90
2019-03-23T14:46:30.967Z,33.63
2019-03-23T14:49:05.586Z,35.28
2019-03-23T14:51:44.384Z,35.23
2019-03-23T14:54:19.022Z,33.92
2019-03-23T14:57:00.025Z,36.23
2019-03-23T14:59:36.155Z,36.50
2019-03-23T15:02:07.226Z,37.57
2019-03-23T15:04:56.042Z,40.60
2019-03-23T15:07:26.714Z,32.65
2019-03-23T15:10:25.789Z,32.25
2019-03-23T15:13:23.909Z,35.97
2019-03-23T15:15:55.319Z,39.15
2019-03-23T15:18:28.794Z,40.80
2019-03-23T15:21:17.859Z,38.70
2019-03-23T15:23:51.354Z,38.57
2019-03-23T15:26:27.191Z,39.03
2019-03-23T15:32:38.697Z,39.23
2019-03-23T15:35:10.822Z,38.23
2019-03-23T15:37:44.819Z,37.95
2019-03-23T15:40:16.634Z,41.90
2019-03-23T15:42:49.575Z,37.60
2019-03-23T15:45:20.044Z,35.95
2019-03-23T15:47:49.870Z,34.27
2019-03-23T15:50:23.247Z,39.05
2019-03-23T15:52:58.093Z,41.70
2019-03-23T15:55:27.747Z,40.38
2019-03-23T15:57:58.538Z,41.00
2019-03-23T16:00:29.630Z,41.98
2019-03-23T16:03:04.973Z,38.00
2019-03-23T16:05:35.764Z,37.55
2019-03-23T16:08:07.370Z,39.55
2019-03-23T16:10:37.610Z,36.40
2019-03-23T16:13:09.252Z,37.60
2019-03-23T16:15:39.470Z,35.48
2019-03-23T16:18:09.123Z,36.75
2019-03-23T16:20:41.171Z,37.38
2019-03-23T16:26:04.869Z,37.35
2019-03-23T16:28:40.154Z,37.67
2019-03-23T16:31:12.564Z,40.67
2019-03-23T16:33:43.125Z,37.42
2019-03-23T16:36:21.331Z,37.63
2019-03-23T16:52:05.349Z,33.70
2019-03-23T16:54:39.093Z,42.57
2019-03-23T16:57:36.272Z,36.53
2019-03-23T17:02:45.614Z,40.30
2019-03-23T18:00:41.646Z,39.70
2019-03-23T18:03:13.411Z,39.30
2019-03-23T18:05:44.804Z,38.93
2019-03-23T18:08:31.040Z,40.67
2019-03-23T18:11:02.814Z,37.43
2019-03-23T18:13:45.853Z,37.20
2019-03-23T18:16:23.864Z,39.13
2019-03-23T18:18:54.651Z,41.23
2019-03-23T18:21:30.548Z,41.57
2019-03-23T18:24:00.398Z,43.53
2019-03-23T18:26:31.105Z,40.93
2019-03-23T18:29:01.901Z,38.70
2019-03-23T18:31:34.625Z,40.93
2019-03-23T18:34:05.226Z,37.60
2019-03-23T18:36:35.148Z,42.17
2019-03-23T18:39:13.136Z,40.30
2019-03-23T18:41:44.649Z,36.57
2019-03-23T18:44:16.505Z,38.83
2019-03-23T18:46:52.084Z,38.57
2019-03-23T18:49:30.000Z,41.20
2019-03-23T18:52:00.108Z,40.70
2019-03-23T18:54:31.035Z,41.73
2019-03-23T18:57:03.946Z,42.93
2019-03-23T18:59:36.427Z,43.70
2019-03-23T19:02:07.481Z,41.20
2019-03-23T19:04:49.639Z,42.53
2019-03-23T19:07:19.607Z,41.53
2019-03-23T19:09:49.531Z,44.50
2019-03-23T19:12:20.967Z,40.83
2019-03-23T19:14:52.758Z,45.27
2019-03-23T19:17:25.382Z,41.40
2019-03-23T19:19:55.554Z,42.43
2019-03-23T19:22:26.612Z,46.23
2019-03-23T19:40:50.035Z,41.50
2019-03-23T19:43:20.063Z,46.75
2019-03-23T19:45:50.306Z,44.35
2019-03-23T19:48:20.523Z,45.47
2019-03-23T19:50:50.476Z,40.20
2019-03-23T19:53:21.061Z,43.50
2019-03-23T19:55:51.511Z,43.60
2019-03-23T19:58:28.160Z,42.43
2019-03-23T20:00:58.910Z,42.78
2019-03-23T20:03:29.827Z,43.85
2019-03-23T20:06:00.552Z,42.03
2019-03-23T20:08:30.522Z,47.00
2019-03-23T20:11:05.452Z,46.45
2019-03-23T20:13:35.154Z,46.30
2019-03-23T20:16:05.066Z,46.40
2019-03-23T20:18:36.898Z,49.30
2019-03-23T20:21:07.325Z,46.88
2019-03-23T20:23:44.133Z,44.95
2019-03-23T20:26:13.884Z,46.18
2019-03-23T20:28:47.659Z,51.92
2019-03-23T20:31:18.826Z,45.67
2019-03-23T20:33:49.354Z,50.33
2019-03-23T20:36:19.455Z,46.68
2019-03-23T20:38:50.453Z,49.03
2019-03-23T20:41:21.978Z,47.25
2019-03-23T20:43:53.441Z,47.43
2019-03-23T20:46:25.020Z,47.73
2019-03-23T20:48:54.776Z,45.28
2019-03-23T20:51:24.854Z,48.45
2019-03-23T20:53:57.665Z,46.33
2019-03-23T20:56:27.678Z,48.40
2019-03-23T20:58:59.683Z,44.40
2019-03-23T21:01:29.362Z,42.43
2019-03-23T21:04:00.058Z,45.40
2019-03-23T21:06:30.468Z,48.65
2019-03-23T21:09:00.409Z,48.90
2019-03-23T21:11:30.174Z,47.98
2019-03-23T21:14:01.194Z,48.10
2019-03-23T21:16:33.913Z,45.80
2019-03-23T21:19:04.900Z,51.18
2019-03-23T21:21:35.144Z,49.50
2019-03-23T21:24:05.387Z,48.35
2019-03-23T21:26:35.684Z,51.58
2019-03-23T21:29:05.433Z,50.20
2019-03-23T21:31:35.270Z,52.93
2019-03-23T21:34:04.996Z,51.55
2019-03-23T21:36:35.109Z,53.15
2019-03-23T21:39:08.296Z,45.35
2019-03-23T21:41:39.054Z,52.60
2019-03-23T21:44:08.967Z,49.73
2019-03-23T21:46:39.719Z,53.52
2019-03-23T21:49:09.757Z,60.43
2019-03-23T21:51:41.244Z,50.33
2019-03-23T21:54:13.174Z,46.07
2019-03-23T21:56:43.602Z,44.03
2019-03-23T21:59:13.557Z,44.50
2019-03-23T22:01:43.230Z,41.93
2019-03-23T22:04:13.139Z,47.93
2019-03-23T22:09:12.201Z,48.45
2019-03-23T22:11:42.029Z,48.73
2019-03-23T22:14:12.054Z,47.40
2019-03-23T22:16:56.333Z,45.63
2019-03-23T22:19:28.430Z,46.90
2019-03-23T22:21:58.570Z,45.03
2019-03-23T22:24:28.390Z,53.77
2019-03-23T22:26:58.451Z,41.13
2019-03-23T22:29:30.768Z,45.57
2019-03-23T22:32:02.818Z,48.58
2019-03-23T22:34:33.236Z,47.30
2019-03-23T22:37:03.244Z,45.75
2019-03-23T22:39:35.994Z,49.98
2019-03-23T22:42:06.590Z,50.30
2019-03-23T22:44:36.603Z,54.45
2019-03-23T22:47:06.636Z,46.65
2019-03-23T22:49:36.240Z,49.17
2019-03-23T22:52:07.029Z,48.00
2019-03-23T22:54:38.436Z,50.00
2019-03-23T22:57:08.504Z,46.30
2019-03-23T22:59:38.262Z,44.83
2019-03-23T23:02:10.636Z,45.70
2019-03-23T23:04:42.587Z,48.35
2019-03-23T23:07:13.119Z,46.63
2019-03-23T23:09:42.824Z,45.67
2019-03-23T23:12:12.850Z,47.10
2019-03-23T23:14:43.434Z,44.98
2019-03-23T23:17:15.626Z,44.33
2019-03-23T23:19:46.196Z,43.38
2019-03-23T23:22:16.731Z,46.17
2019-03-23T23:24:48.659Z,44.93
2019-03-23T23:27:30.943Z,47.50
2019-03-23T23:30:00.974Z,44.77
2019-03-23T23:32:32.218Z,46.40
2019-03-23T23:35:02.160Z,41.70
2019-03-23T23:37:32.720Z,45.38
2019-03-23T23:40:02.985Z,40.48
2019-03-23T23:42:32.599Z,45.63
2019-03-23T23:45:02.294Z,40.92
2019-03-23T23:47:32.725Z,42.08
2019-03-23T23:50:02.790Z,43.73
2019-03-23T23:52:34.891Z,40.33
2019-03-23T23:55:05.367Z,40.33
2019-03-23T23:57:35.906Z,40.17
